createdAt,value
2022-12-31T00:00:38.912Z,0.70
2022-12-31T00:02:42.610Z,0.70
2022-12-31T00:04:46.039Z,0.80
2022-12-31T00:06:49.347Z,0.90
2022-12-31T00:08:55.615Z,0.90
2022-12-31T00:10:58.803Z,2.40
2022-12-31T00:13:04.141Z,3.40
2022-12-31T00:15:08.432Z,4.40
2022-12-31T00:17:12.022Z,2.57
2022-12-31T00:19:15.254Z,0.73
2022-12-31T00:21:20.987Z,0.80
2022-12-31T00:23:24.028Z,0.80
2022-12-31T00:25:28.499Z,0.60
2022-12-31T00:27:31.797Z,0.80
2022-12-31T00:29:35.133Z,2.47
2022-12-31T00:31:39.536Z,1.30
2022-12-31T00:33:43.934Z,1.43
2022-12-31T00:35:47.091Z,0.83
2022-12-31T00:37:52.673Z,1.30
2022-12-31T00:39:55.858Z,0.80
2022-12-31T00:42:00.437Z,0.90
2022-12-31T00:44:03.879Z,0.73
2022-12-31T00:46:07.923Z,1.00
2022-12-31T00:48:11.506Z,0.90
2022-12-31T00:50:14.610Z,0.87
2022-12-31T00:52:18.319Z,1.20
2022-12-31T00:54:21.437Z,0.60
2022-12-31T00:56:25.983Z,0.73
2022-12-31T00:58:30.693Z,0.57
2022-12-31T01:00:33.817Z,0.80
2022-12-31T01:02:37.086Z,0.80
2022-12-31T01:04:40.294Z,1.00
2022-12-31T01:06:44.167Z,0.60
2022-12-31T01:08:49.844Z,0.70
2022-12-31T01:11:10.802Z,0.90
2022-12-31T01:13:14.216Z,1.03
2022-12-31T01:15:18.950Z,0.67
2022-12-31T01:17:21.997Z,0.80
2022-12-31T01:19:27.289Z,0.83
2022-12-31T01:21:31.232Z,0.87
2022-12-31T01:23:34.425Z,0.80
2022-12-31T01:25:38.242Z,0.73
2022-12-31T01:27:41.356Z,0.93
2022-12-31T01:29:44.725Z,1.43
2022-12-31T01:31:49.142Z,0.70
2022-12-31T01:33:52.836Z,0.80
2022-12-31T01:35:55.985Z,0.83
2022-12-31T01:37:59.202Z,0.70
2022-12-31T01:40:02.238Z,0.80
2022-12-31T01:42:05.937Z,1.13
2022-12-31T01:44:42.398Z,0.90
2022-12-31T01:46:49.567Z,0.97
2022-12-31T01:48:54.518Z,1.03
2022-12-31T01:50:57.673Z,1.10
2022-12-31T01:53:03.547Z,0.83
2022-12-31T01:55:11.542Z,1.00
2022-12-31T01:57:15.202Z,0.80
2022-12-31T01:59:19.106Z,0.80
2022-12-31T02:01:25.875Z,0.77
2022-12-31T02:03:30.864Z,1.00
2022-12-31T02:05:39.837Z,1.00
2022-12-31T02:07:43.066Z,0.87
2022-12-31T02:09:46.250Z,1.13
2022-12-31T02:11:49.360Z,1.10
2022-12-31T02:13:58.281Z,1.23
2022-12-31T02:16:07.130Z,1.40
2022-12-31T02:18:15.833Z,1.40
2022-12-31T02:20:47.417Z,1.07
2022-12-31T02:23:07.567Z,1.10
2022-12-31T02:25:24.586Z,1.03
2022-12-31T02:27:39.061Z,0.93
2022-12-31T02:30:17.269Z,0.80
2022-12-31T02:32:24.963Z,1.13
2022-12-31T02:34:32.150Z,0.80
2022-12-31T02:36:37.790Z,1.10
2022-12-31T02:38:46.223Z,0.90
2022-12-31T02:40:49.554Z,1.17
2022-12-31T02:42:55.587Z,0.93
2022-12-31T02:44:59.159Z,1.00
2022-12-31T02:47:13.287Z,1.00
2022-12-31T02:49:21.915Z,0.90
2022-12-31T02:51:35.693Z,1.00
2022-12-31T02:54:12.201Z,1.00
2022-12-31T02:56:18.203Z,1.03
2022-12-31T02:58:45.636Z,0.90
2022-12-31T03:01:09.356Z,1.00
2022-12-31T03:03:13.156Z,1.00
2022-12-31T03:05:19.532Z,1.30
2022-12-31T03:07:25.151Z,1.23
2022-12-31T03:09:28.202Z,1.07
2022-12-31T03:11:48.594Z,1.00
2022-12-31T03:13:51.779Z,1.10
2022-12-31T03:15:54.890Z,1.10
2022-12-31T03:18:00.505Z,0.80
2022-12-31T03:20:21.129Z,1.10
2022-12-31T03:22:27.405Z,1.00
2022-12-31T03:24:48.027Z,0.90
2022-12-31T03:26:51.173Z,1.00
2022-12-31T03:28:54.250Z,1.10
2022-12-31T03:30:59.415Z,1.30
2022-12-31T03:33:03.233Z,1.03
2022-12-31T03:35:07.212Z,1.00
2022-12-31T03:37:11.893Z,0.97
2022-12-31T03:39:16.344Z,1.10
2022-12-31T03:41:19.431Z,1.43
2022-12-31T03:43:22.639Z,1.07
2022-12-31T03:45:25.756Z,1.13
2022-12-31T03:47:29.068Z,0.90
2022-12-31T03:49:32.088Z,1.10
2022-12-31T03:51:35.193Z,1.00
2022-12-31T03:53:38.289Z,1.00
2022-12-31T03:55:43.413Z,1.10
2022-12-31T03:57:46.548Z,1.03
2022-12-31T03:59:49.717Z,1.10
2022-12-31T04:01:53.011Z,0.90
2022-12-31T04:03:56.503Z,1.00
2022-12-31T04:05:59.661Z,0.83
2022-12-31T04:08:03.078Z,1.10
2022-12-31T04:10:07.993Z,0.90
2022-12-31T04:12:12.507Z,0.90
2022-12-31T04:14:17.228Z,1.00
2022-12-31T04:16:20.301Z,1.10
2022-12-31T04:18:23.371Z,1.10
2022-12-31T04:20:26.465Z,0.93
2022-12-31T04:22:29.463Z,1.03
2022-12-31T04:24:32.786Z,0.90
2022-12-31T04:26:36.102Z,0.80
2022-12-31T04:28:40.629Z,0.90
2022-12-31T04:30:43.625Z,0.90
2022-12-31T04:32:46.733Z,0.83
2022-12-31T04:34:50.038Z,0.80
2022-12-31T04:36:53.176Z,0.90
2022-12-31T04:38:57.184Z,1.10
2022-12-31T04:41:18.309Z,1.07
2022-12-31T04:43:21.368Z,0.80
2022-12-31T04:45:25.855Z,0.90
2022-12-31T04:47:28.888Z,0.70
2022-12-31T04:49:32.065Z,0.70
2022-12-31T04:51:35.628Z,0.80
2022-12-31T04:53:38.826Z,0.90
2022-12-31T04:55:42.367Z,0.80
2022-12-31T04:57:45.447Z,0.70
2022-12-31T04:59:48.433Z,0.63
2022-12-31T05:01:53.067Z,0.90
2022-12-31T05:03:56.198Z,0.70
2022-12-31T05:06:02.683Z,0.80
2022-12-31T05:08:06.322Z,0.70
2022-12-31T05:10:09.552Z,1.07
2022-12-31T05:12:12.669Z,0.80
2022-12-31T05:14:15.820Z,1.10
2022-12-31T05:16:18.875Z,0.80
2022-12-31T05:18:23.515Z,0.70
2022-12-31T05:20:26.569Z,0.80
2022-12-31T05:22:30.188Z,0.97
2022-12-31T05:24:33.387Z,0.97
2022-12-31T05:26:36.411Z,0.70
2022-12-31T05:28:39.858Z,0.90
2022-12-31T05:30:43.294Z,0.80
2022-12-31T05:32:46.485Z,0.70
2022-12-31T05:34:53.551Z,0.80
2022-12-31T05:36:59.181Z,0.70
2022-12-31T05:39:02.271Z,0.90
2022-12-31T05:41:07.309Z,0.80
2022-12-31T05:43:10.322Z,1.00
2022-12-31T05:45:14.059Z,0.63
2022-12-31T05:47:17.229Z,0.87
2022-12-31T05:49:20.181Z,1.47
2022-12-31T05:51:24.541Z,0.67
2022-12-31T05:53:27.714Z,0.80
2022-12-31T05:55:30.764Z,0.80
2022-12-31T05:57:34.087Z,0.80
2022-12-31T05:59:37.225Z,0.87
2022-12-31T06:01:40.700Z,0.80
2022-12-31T06:03:43.843Z,0.80
2022-12-31T06:05:47.065Z,0.70
2022-12-31T06:07:51.608Z,0.80
2022-12-31T06:09:54.849Z,0.90
2022-12-31T06:11:57.896Z,0.90
2022-12-31T06:14:00.908Z,0.90
2022-12-31T06:16:06.876Z,0.77
2022-12-31T06:18:09.923Z,1.07
2022-12-31T06:20:13.511Z,1.10
2022-12-31T06:22:16.624Z,1.20
2022-12-31T06:24:21.351Z,0.97
2022-12-31T06:26:24.338Z,0.90
2022-12-31T06:28:27.477Z,1.00
2022-12-31T06:30:30.586Z,1.00
2022-12-31T06:32:36.052Z,0.97
2022-12-31T06:34:39.098Z,1.00
2022-12-31T06:36:42.369Z,1.10
2022-12-31T06:38:45.669Z,0.90
2022-12-31T06:40:50.176Z,0.90
2022-12-31T06:42:59.726Z,1.00
2022-12-31T06:45:03.504Z,0.80
2022-12-31T06:47:06.707Z,1.00
2022-12-31T06:49:09.782Z,1.00
2022-12-31T06:51:17.232Z,1.07
2022-12-31T06:53:20.596Z,0.90
2022-12-31T06:55:24.325Z,0.80
2022-12-31T06:57:29.497Z,1.00
2022-12-31T06:59:33.131Z,0.93
2022-12-31T07:01:49.978Z,1.00
2022-12-31T07:03:58.134Z,1.20
2022-12-31T07:06:04.800Z,0.80
2022-12-31T07:08:16.910Z,0.87
2022-12-31T07:10:29.707Z,0.80
2022-12-31T07:12:42.812Z,0.80
2022-12-31T07:14:47.878Z,0.90
2022-12-31T07:16:57.564Z,1.10
2022-12-31T07:19:11.209Z,0.70
2022-12-31T07:21:16.383Z,1.00
2022-12-31T07:23:20.341Z,0.83
2022-12-31T07:25:24.449Z,1.03
2022-12-31T07:27:44.476Z,0.80
2022-12-31T07:30:00.283Z,1.10
2022-12-31T07:32:12.779Z,1.00
2022-12-31T07:34:21.472Z,0.80
2022-12-31T07:36:47.125Z,1.10
2022-12-31T07:38:55.004Z,2.20
2022-12-31T07:41:09.345Z,1.67
2022-12-31T07:43:19.189Z,1.17
2022-12-31T07:45:27.397Z,1.57
2022-12-31T07:47:31.041Z,1.10
2022-12-31T07:49:35.383Z,1.47
2022-12-31T07:51:39.109Z,0.93
2022-12-31T07:53:42.113Z,1.00
2022-12-31T07:55:45.270Z,1.10
2022-12-31T07:57:53.076Z,1.30
2022-12-31T08:00:06.396Z,1.20
2022-12-31T08:02:23.323Z,1.00
2022-12-31T08:04:30.004Z,0.93
2022-12-31T08:06:39.869Z,1.00
2022-12-31T08:08:50.860Z,1.07
2022-12-31T08:11:03.278Z,1.00
2022-12-31T08:13:10.944Z,1.00
2022-12-31T08:15:18.542Z,1.00
2022-12-31T08:17:22.132Z,1.03
2022-12-31T08:19:28.351Z,0.93
2022-12-31T08:21:37.825Z,0.90
2022-12-31T08:23:45.578Z,1.30
2022-12-31T08:26:00.511Z,1.10
2022-12-31T08:28:09.120Z,1.00
2022-12-31T08:30:16.287Z,1.20
2022-12-31T08:32:24.038Z,0.80
2022-12-31T08:34:32.418Z,1.10
2022-12-31T08:36:45.388Z,0.97
2022-12-31T08:38:52.378Z,0.90
2022-12-31T08:41:00.894Z,0.97
2022-12-31T08:43:14.018Z,0.90
2022-12-31T08:45:23.911Z,0.90
2022-12-31T08:47:38.189Z,1.10
2022-12-31T08:49:53.008Z,0.80
2022-12-31T08:54:19.679Z,1.20
2022-12-31T08:56:28.408Z,0.90
2022-12-31T08:58:40.973Z,0.90
2022-12-31T09:00:45.741Z,0.80
2022-12-31T09:03:02.533Z,1.10
2022-12-31T09:05:12.653Z,0.80
2022-12-31T09:07:17.557Z,0.90
2022-12-31T09:09:25.204Z,1.20
2022-12-31T09:11:33.553Z,1.00
2022-12-31T09:13:47.039Z,4.07
2022-12-31T09:15:56.222Z,1.00
2022-12-31T09:17:59.952Z,1.00
2022-12-31T09:20:03.683Z,0.83
2022-12-31T09:22:07.259Z,1.10
2022-12-31T09:24:13.276Z,1.10
2022-12-31T09:26:30.297Z,0.73
2022-12-31T09:28:39.559Z,0.90
2022-12-31T09:30:49.170Z,0.90
2022-12-31T09:33:03.127Z,1.10
2022-12-31T09:35:14.092Z,1.20
2022-12-31T09:37:21.838Z,0.90
2022-12-31T09:39:32.635Z,0.80
2022-12-31T09:41:58.183Z,0.70
2022-12-31T09:44:28.920Z,0.90
2022-12-31T09:47:08.514Z,1.00
2022-12-31T09:49:51.422Z,0.80
2022-12-31T09:51:59.151Z,1.23
2022-12-31T09:54:25.154Z,1.00
2022-12-31T09:56:31.109Z,1.00
2022-12-31T09:58:42.462Z,0.90
2022-12-31T10:00:53.488Z,3.17
2022-12-31T10:03:17.491Z,1.63
2022-12-31T10:05:36.505Z,1.20
2022-12-31T10:07:52.803Z,1.27
2022-12-31T10:10:07.418Z,4.20
2022-12-31T10:12:43.920Z,2.60
2022-12-31T10:14:58.128Z,0.80
2022-12-31T10:17:12.483Z,1.10
2022-12-31T10:19:52.898Z,1.10
2022-12-31T10:22:06.360Z,1.30
2022-12-31T10:24:44.630Z,1.47
2022-12-31T10:26:57.540Z,1.07
2022-12-31T10:29:08.395Z,0.80
2022-12-31T10:31:15.643Z,0.93
2022-12-31T10:33:29.997Z,1.00
2022-12-31T10:35:40.883Z,1.00
2022-12-31T10:37:49.764Z,0.90
2022-12-31T10:40:01.842Z,1.10
2022-12-31T10:42:35.962Z,1.57
2022-12-31T10:45:09.582Z,1.20
2022-12-31T10:47:47.808Z,1.17
2022-12-31T10:50:29.603Z,0.90
2022-12-31T10:53:02.029Z,1.10
2022-12-31T10:55:27.431Z,1.30
2022-12-31T10:57:43.097Z,0.93
2022-12-31T11:00:15.565Z,0.90
2022-12-31T11:02:37.843Z,1.30
2022-12-31T11:05:13.638Z,1.40
2022-12-31T11:07:43.639Z,1.00
2022-12-31T11:10:21.410Z,1.13
2022-12-31T11:12:42.059Z,0.90
2022-12-31T11:15:03.121Z,0.90
2022-12-31T11:17:22.552Z,3.00
2022-12-31T11:19:30.985Z,1.47
2022-12-31T11:21:44.967Z,1.00
2022-12-31T11:23:56.298Z,1.20
2022-12-31T11:26:08.713Z,1.27
2022-12-31T11:28:41.944Z,1.00
2022-12-31T11:30:56.963Z,0.83
2022-12-31T11:33:19.087Z,0.87
2022-12-31T11:38:27.909Z,2.07
2022-12-31T11:43:39.412Z,1.30
2022-12-31T11:46:54.400Z,1.00
2022-12-31T11:49:52.230Z,1.20
2022-12-31T11:52:11.867Z,2.20
2022-12-31T11:54:34.029Z,1.90
2022-12-31T11:56:41.752Z,1.27
2022-12-31T12:01:12.790Z,1.10
2022-12-31T12:03:16.434Z,0.97
2022-12-31T12:05:22.152Z,0.80
2022-12-31T12:07:25.373Z,1.00
2022-12-31T12:09:30.466Z,1.10
2022-12-31T12:11:36.752Z,1.07
2022-12-31T12:13:39.899Z,1.07
2022-12-31T12:15:48.295Z,0.77
2022-12-31T12:17:54.129Z,1.10
2022-12-31T12:19:57.882Z,0.80
2022-12-31T12:22:11.026Z,0.90
2022-12-31T12:24:21.096Z,1.03
2022-12-31T12:26:29.807Z,0.97
2022-12-31T12:28:44.654Z,1.20
2022-12-31T12:30:55.978Z,1.00
2022-12-31T12:33:01.239Z,1.10
2022-12-31T12:35:15.375Z,1.00
2022-12-31T12:37:32.351Z,1.30
2022-12-31T12:39:35.993Z,1.20
2022-12-31T12:41:39.096Z,1.00
2022-12-31T12:43:42.347Z,1.13
2022-12-31T12:45:52.124Z,1.60
2022-12-31T12:48:00.132Z,4.93
2022-12-31T12:50:03.342Z,2.57
2022-12-31T12:52:33.028Z,1.53
2022-12-31T12:54:44.772Z,4.60
2022-12-31T12:56:53.077Z,7.00
2022-12-31T12:59:17.461Z,0.90
2022-12-31T13:01:27.370Z,0.90
2022-12-31T13:04:33.452Z,0.90
2022-12-31T13:06:38.084Z,0.90
2022-12-31T13:08:56.288Z,1.57
2022-12-31T13:11:15.703Z,3.00
2022-12-31T13:13:25.832Z,4.60
2022-12-31T13:15:33.753Z,6.60
2022-12-31T13:17:53.335Z,0.93
2022-12-31T13:20:04.929Z,0.80
2022-12-31T13:22:12.771Z,0.80
2022-12-31T13:24:28.386Z,1.50
2022-12-31T13:26:35.186Z,3.03
2022-12-31T13:28:42.345Z,3.27
2022-12-31T13:30:49.289Z,1.00
2022-12-31T13:32:54.433Z,0.80
2022-12-31T13:35:01.995Z,5.90
2022-12-31T13:37:08.586Z,2.50
2022-12-31T13:39:16.729Z,1.07
2022-12-31T13:41:24.021Z,1.00
2022-12-31T13:43:37.074Z,1.07
2022-12-31T13:45:42.716Z,0.70
2022-12-31T13:47:48.081Z,1.10
2022-12-31T13:49:56.390Z,1.30
2022-12-31T13:52:04.297Z,3.27
2022-12-31T13:54:19.292Z,1.40
2022-12-31T13:56:25.741Z,5.30
2022-12-31T13:58:38.664Z,3.73
2022-12-31T14:01:01.468Z,4.50
2022-12-31T14:03:13.399Z,2.33
2022-12-31T14:05:20.192Z,8.13
2022-12-31T14:07:35.381Z,5.07
2022-12-31T14:09:42.643Z,1.83
2022-12-31T14:12:02.351Z,1.47
2022-12-31T14:14:14.940Z,0.87
2022-12-31T14:16:24.408Z,1.10
2022-12-31T14:18:33.256Z,0.90
2022-12-31T14:20:43.770Z,5.60
2022-12-31T14:22:51.795Z,1.10
2022-12-31T14:24:56.190Z,0.90
2022-12-31T14:27:02.311Z,1.30
2022-12-31T14:29:15.571Z,1.10
2022-12-31T14:31:26.553Z,0.90
2022-12-31T14:33:43.947Z,1.00
2022-12-31T14:35:56.187Z,1.10
2022-12-31T14:38:07.298Z,1.20
2022-12-31T14:40:19.465Z,1.00
2022-12-31T14:42:29.851Z,1.10
2022-12-31T14:44:47.958Z,1.10
2022-12-31T14:47:01.041Z,1.73
2022-12-31T14:49:17.140Z,1.20
2022-12-31T14:51:20.757Z,1.30
2022-12-31T14:53:27.530Z,1.60
2022-12-31T14:55:32.164Z,1.30
2022-12-31T14:58:01.737Z,4.57
2022-12-31T15:00:21.610Z,10.13
2022-12-31T15:02:28.608Z,1.47
2022-12-31T15:04:33.941Z,1.17
2022-12-31T15:06:52.787Z,1.50
2022-12-31T15:09:08.302Z,1.60
2022-12-31T15:11:25.185Z,1.53
2022-12-31T15:13:33.557Z,1.30
2022-12-31T15:15:44.737Z,1.40
2022-12-31T15:17:54.978Z,1.53
2022-12-31T15:20:29.252Z,1.50
2022-12-31T15:22:38.762Z,1.63
2022-12-31T15:24:46.085Z,5.47
2022-12-31T15:26:51.543Z,30.63
2022-12-31T15:28:59.616Z,36.73
2022-12-31T15:31:07.961Z,54.30
2022-12-31T15:33:21.899Z,57.97
2022-12-31T15:35:29.130Z,75.00
2022-12-31T15:37:34.233Z,56.20
2022-12-31T15:39:43.692Z,28.87
2022-12-31T15:42:35.508Z,2.60
2022-12-31T15:44:19.264Z,5.97
2022-12-31T15:46:25.112Z,2.73
2022-12-31T15:48:33.525Z,1.53
2022-12-31T15:50:38.362Z,1.80
2022-12-31T15:52:44.250Z,1.47
2022-12-31T15:54:49.632Z,1.70
2022-12-31T15:56:55.449Z,1.70
2022-12-31T15:59:00.823Z,1.93
2022-12-31T16:01:10.400Z,1.90
2022-12-31T16:03:21.567Z,2.70
2022-12-31T16:05:26.447Z,2.63
2022-12-31T16:07:31.952Z,2.33
2022-12-31T16:09:36.332Z,2.30
2022-12-31T16:11:41.810Z,2.03
2022-12-31T16:13:49.455Z,3.00
2022-12-31T16:15:57.452Z,3.13
2022-12-31T16:18:02.992Z,3.33
2022-12-31T16:20:23.523Z,3.00
2022-12-31T16:22:28.728Z,2.50
2022-12-31T16:24:33.784Z,3.57
2022-12-31T16:26:47.332Z,2.80
2022-12-31T16:28:52.134Z,3.10
2022-12-31T16:31:01.102Z,2.83
2022-12-31T16:33:05.886Z,2.80
2022-12-31T16:35:23.899Z,2.83
2022-12-31T16:37:29.046Z,2.70
2022-12-31T16:39:35.587Z,3.10
2022-12-31T16:41:43.524Z,2.90
2022-12-31T16:43:48.590Z,2.93
2022-12-31T16:45:54.076Z,3.37
2022-12-31T16:47:58.732Z,3.57
2022-12-31T16:50:05.737Z,3.23
2022-12-31T16:52:16.971Z,3.57
2022-12-31T16:54:29.887Z,3.30
2022-12-31T16:56:36.405Z,2.70
2022-12-31T16:58:45.250Z,3.10
2022-12-31T17:00:49.239Z,2.50
2022-12-31T17:03:02.090Z,2.40
2022-12-31T17:05:06.203Z,2.30
2022-12-31T17:07:42.721Z,2.70
2022-12-31T17:09:45.830Z,19.00
2022-12-31T17:11:57.048Z,10.77
2022-12-31T17:14:10.202Z,13.57
2022-12-31T17:16:19.024Z,7.57
2022-12-31T17:18:25.324Z,6.30
2022-12-31T17:20:31.189Z,7.67
2022-12-31T17:22:40.924Z,14.10
2022-12-31T17:24:44.705Z,6.07
2022-12-31T17:26:48.417Z,6.63
2022-12-31T17:28:53.625Z,5.10
2022-12-31T17:31:03.669Z,8.37
2022-12-31T17:33:31.438Z,5.33
2022-12-31T17:35:36.942Z,6.43
2022-12-31T17:37:42.703Z,15.87
2022-12-31T17:39:50.146Z,13.80
2022-12-31T17:42:00.665Z,18.73
2022-12-31T17:44:06.263Z,18.60
2022-12-31T17:46:13.168Z,17.87
2022-12-31T17:48:19.120Z,20.37
2022-12-31T17:50:27.131Z,88.90
2022-12-31T17:52:31.375Z,49.87
2022-12-31T17:54:35.146Z,32.30
2022-12-31T17:56:38.585Z,65.57
2022-12-31T17:58:45.103Z,25.53
2022-12-31T18:00:48.597Z,15.40
2022-12-31T18:02:52.200Z,12.20
2022-12-31T18:04:55.439Z,16.47
2022-12-31T18:06:59.998Z,33.50
2022-12-31T18:09:03.721Z,39.87
2022-12-31T18:11:07.139Z,43.80
2022-12-31T18:13:15.940Z,26.70
2022-12-31T18:15:21.352Z,19.17
2022-12-31T18:17:24.746Z,17.87
2022-12-31T18:20:03.100Z,25.60
2022-12-31T18:21:51.673Z,21.47
2022-12-31T18:25:59.377Z,29.20
2022-12-31T18:28:04.134Z,30.93
2022-12-31T18:30:10.446Z,37.03
2022-12-31T18:32:21.170Z,37.30
2022-12-31T18:34:29.586Z,33.27
2022-12-31T18:36:32.884Z,32.43
2022-12-31T18:38:36.138Z,32.30
2022-12-31T18:40:44.484Z,33.17
2022-12-31T18:42:48.216Z,23.03
2022-12-31T18:44:51.426Z,26.57
2022-12-31T18:46:56.213Z,21.53
2022-12-31T18:48:59.357Z,14.90
2022-12-31T18:51:04.980Z,18.37
2022-12-31T18:53:08.586Z,21.50
2022-12-31T18:55:23.572Z,23.47
2022-12-31T18:57:28.078Z,19.30
2022-12-31T18:59:31.729Z,19.73
2022-12-31T19:01:36.604Z,19.40
2022-12-31T19:03:39.947Z,20.53
2022-12-31T19:05:44.599Z,15.23
2022-12-31T19:07:48.611Z,20.63
2022-12-31T19:09:58.149Z,20.43
2022-12-31T19:12:01.689Z,19.63
2022-12-31T19:14:23.064Z,21.67
2022-12-31T19:16:27.843Z,23.10
2022-12-31T19:18:31.664Z,40.20
2022-12-31T19:20:35.657Z,34.50
2022-12-31T19:22:38.850Z,31.10
2022-12-31T19:24:42.181Z,40.80
2022-12-31T19:26:45.357Z,27.00
2022-12-31T19:28:49.591Z,27.47
2022-12-31T19:30:56.081Z,217.27
2022-12-31T19:33:21.560Z,75.83
2022-12-31T19:35:25.646Z,46.80
2022-12-31T19:37:31.477Z,101.90
2022-12-31T19:39:39.695Z,63.53
2022-12-31T19:41:43.692Z,39.10
2022-12-31T19:44:14.263Z,32.27
2022-12-31T19:46:20.368Z,32.53
2022-12-31T19:48:32.392Z,28.50
2022-12-31T19:50:36.171Z,23.07
2022-12-31T19:52:39.262Z,20.40
2022-12-31T19:54:42.398Z,26.30
2022-12-31T19:56:45.440Z,24.60
2022-12-31T19:58:48.746Z,24.73
2022-12-31T20:00:58.232Z,27.30
2022-12-31T20:03:08.063Z,22.53
2022-12-31T20:05:12.374Z,22.37
2022-12-31T20:07:15.586Z,34.60
2022-12-31T20:09:18.785Z,25.20
2022-12-31T20:11:23.854Z,27.47
2022-12-31T20:13:27.334Z,25.80
2022-12-31T20:15:30.392Z,27.03
2022-12-31T20:17:33.452Z,27.83
2022-12-31T20:19:37.921Z,26.33
2022-12-31T20:21:41.903Z,26.90
2022-12-31T20:23:45.615Z,33.07
2022-12-31T20:25:57.953Z,28.97
2022-12-31T20:28:01.592Z,32.23
2022-12-31T20:30:05.190Z,32.80
2022-12-31T20:32:08.244Z,33.30
2022-12-31T20:34:11.829Z,30.43
2022-12-31T20:36:17.652Z,32.00
2022-12-31T20:38:21.171Z,34.73
2022-12-31T20:40:24.336Z,38.13
2022-12-31T20:42:27.451Z,57.30
2022-12-31T20:44:30.721Z,67.50
2022-12-31T20:46:34.140Z,66.10
2022-12-31T20:48:37.480Z,52.30
2022-12-31T20:50:40.485Z,51.53
2022-12-31T20:52:45.574Z,42.97
2022-12-31T20:54:48.659Z,31.97
2022-12-31T20:56:51.817Z,22.83
2022-12-31T20:58:54.880Z,13.23
2022-12-31T21:00:58.492Z,8.83
2022-12-31T21:03:14.186Z,13.33
2022-12-31T21:05:22.057Z,15.27
2022-12-31T21:07:25.348Z,13.80
2022-12-31T21:09:30.016Z,12.70
2022-12-31T21:11:50.895Z,27.00
2022-12-31T21:13:54.275Z,26.30
2022-12-31T21:15:59.086Z,16.23
2022-12-31T21:18:02.585Z,18.53
2022-12-31T21:20:07.116Z,39.37
2022-12-31T21:22:10.377Z,42.23
2022-12-31T21:24:20.151Z,52.77
2022-12-31T21:26:27.000Z,35.70
2022-12-31T21:28:30.770Z,20.10
2022-12-31T21:30:35.253Z,35.27
2022-12-31T21:32:38.433Z,30.40
2022-12-31T21:34:41.723Z,29.00
2022-12-31T21:36:44.959Z,37.10
2022-12-31T21:38:48.059Z,37.37
2022-12-31T21:40:51.405Z,37.50
2022-12-31T21:42:55.875Z,46.00
2022-12-31T21:45:00.147Z,46.10
2022-12-31T21:47:34.902Z,88.73
2022-12-31T21:49:38.744Z,46.60
2022-12-31T21:51:55.759Z,53.07
2022-12-31T21:54:00.482Z,47.20
2022-12-31T21:56:09.908Z,43.07
2022-12-31T21:58:26.879Z,46.43
2022-12-31T22:00:49.293Z,46.50
2022-12-31T22:03:10.586Z,53.27
2022-12-31T22:05:21.446Z,49.83
2022-12-31T22:07:28.716Z,49.90
2022-12-31T22:09:32.069Z,51.90
2022-12-31T22:11:35.460Z,58.67
2022-12-31T22:13:40.769Z,59.00
2022-12-31T22:15:44.969Z,47.20
2022-12-31T22:17:48.157Z,53.80
2022-12-31T22:20:25.187Z,58.33
2022-12-31T22:22:14.435Z,63.30
2022-12-31T22:24:17.727Z,59.13
2022-12-31T22:26:22.279Z,55.50
2022-12-31T22:28:38.218Z,46.60
2022-12-31T22:30:43.860Z,46.30
2022-12-31T22:32:47.000Z,34.17
2022-12-31T22:34:50.071Z,46.43
2022-12-31T22:36:53.437Z,52.57
2022-12-31T22:38:58.197Z,49.23
2022-12-31T22:41:08.259Z,48.90
2022-12-31T22:43:11.252Z,47.40
2022-12-31T22:45:14.370Z,617.03
2022-12-31T22:47:18.999Z,546.70
2022-12-31T22:49:22.292Z,461.13
2022-12-31T22:51:27.188Z,580.30
2022-12-31T22:53:34.017Z,372.47
2022-12-31T22:55:37.152Z,75.63
2022-12-31T22:57:40.092Z,78.57
2022-12-31T22:59:43.692Z,66.37
2022-12-31T23:01:46.711Z,157.43
2022-12-31T23:03:52.386Z,187.13
2022-12-31T23:05:55.636Z,306.90
2022-12-31T23:07:59.066Z,861.07
2022-12-31T23:10:19.883Z,383.23
2022-12-31T23:12:22.940Z,666.33
2022-12-31T23:14:43.481Z,843.40
2022-12-31T23:17:31.414Z,768.53
2022-12-31T23:19:47.008Z,747.37
2022-12-31T23:22:07.811Z,706.67
2022-12-31T23:24:19.064Z,649.53
2022-12-31T23:26:24.617Z,562.10
2022-12-31T23:28:27.905Z,299.40
2022-12-31T23:30:31.057Z,285.00
2022-12-31T23:32:34.417Z,567.43
2022-12-31T23:34:38.918Z,614.20
2022-12-31T23:36:42.096Z,703.87
2022-12-31T23:38:45.450Z,476.57
2022-12-31T23:40:48.826Z,555.33
2022-12-31T23:42:51.774Z,491.43
2022-12-31T23:44:54.824Z,451.37
2022-12-31T23:46:58.021Z,300.40
2022-12-31T23:49:01.523Z,277.43
2022-12-31T23:51:06.254Z,255.90
2022-12-31T23:53:09.308Z,263.43
2022-12-31T23:55:12.701Z,242.43
2022-12-31T23:57:15.959Z,288.33
2022-12-31T23:59:19.212Z,256.43
